KGRR/GRR METAR and TAF weather

Enter ICAO airport designator
Station Type Date Time Source
KGRR METAR 2022/11/30 17:53 UTC NOAA

KGRR 301753Z 27024G34KT 9SM -SN BKN027 OVC037 M02/M07 A2985 RMK AO2 PK WND 26038/1655 SLP113 P0000 60000 T10171072 10000 21022 51022


Station Type Date Time Source
KGRR Decoded METAR 2022/11/30 17:53 UTC NOAA

GERALD R. FORD INTERNATIONAL, MI, United States (KGRR) 42-53N 085-31W 239M
Nov 30, 2022 - 12:53 PM EST / 2022.11.30 1753 UTC
Wind: from the W (270 degrees) at 28 MPH (24 KT) gusting to 39 MPH (34 KT):0
Visibility: 9 mile(s):0
Sky conditions: overcast
Weather: light snow
Precipitation last hour: A trace
Temperature: 28.9 F (-1.7 C)
Windchill: 14 F (-10 C):1
Dew Point: 19.0 F (-7.2 C)
Relative Humidity: 66%
Pressure (altimeter): 29.85 in. Hg (1010 hPa)
Pressure tendency: 0.06 inches (2.2 hPa) higher than three hours ago
ob: KGRR 301753Z 27024G34KT 9SM -SN BKN027 OVC037 M02/M07 A2985 RMK AO2 PK WND 26038/1655 SLP113 P0000 60000 T10171072 10000 21022 51022
cycle: 18

Station Type Date Time Source
KGRR TAF 2022/11/30 18:30 UTC NOAA

TAF KGRR 301729Z 3018/0118 27021G34KT P6SM -SN BKN028 OVC040
TEMPO 3020/3024 2SM -SHSN BLSN OVC015
FM010100 27020G32KT P6SM VCSH BKN025
FM011000 28014KT P6SM BKN040
FM011400 27009KT P6SM BKN045

Example: see airport list